sensor_id;sensor_type;location;lat;lon;timestamp;P1;durP1;ratioP1;P2;durP2;ratioP2
43523;SDS011;29120;52.006;6.020;2022-08-01T00:01:02;5.03;;;4.28;;
43523;SDS011;29120;52.006;6.020;2022-08-01T00:03:28;5.32;;;4.68;;
43523;SDS011;29120;52.006;6.020;2022-08-01T00:05:53;7.13;;;6.00;;
43523;SDS011;29120;52.006;6.020;2022-08-01T00:08:19;6.80;;;5.32;;
43523;SDS011;29120;52.006;6.020;2022-08-01T00:10:44;6.45;;;5.32;;
43523;SDS011;29120;52.006;6.020;2022-08-01T00:13:10;5.63;;;5.15;;
43523;SDS011;29120;52.006;6.020;2022-08-01T00:15:35;7.95;;;5.95;;
43523;SDS011;29120;52.006;6.020;2022-08-01T00:18:01;6.97;;;5.18;;
43523;SDS011;29120;52.006;6.020;2022-08-01T00:20:26;5.88;;;5.32;;
43523;SDS011;29120;52.006;6.020;2022-08-01T00:22:52;5.45;;;4.95;;
43523;SDS011;29120;52.006;6.020;2022-08-01T00:25:18;8.18;;;4.85;;
43523;SDS011;29120;52.006;6.020;2022-08-01T00:27:43;5.97;;;5.40;;
43523;SDS011;29120;52.006;6.020;2022-08-01T00:30:09;4.60;;;4.20;;
43523;SDS011;29120;52.006;6.020;2022-08-01T00:32:34;4.75;;;4.35;;
43523;SDS011;29120;52.006;6.020;2022-08-01T00:35:00;5.55;;;5.05;;
43523;SDS011;29120;52.006;6.020;2022-08-01T00:37:26;5.03;;;4.55;;
43523;SDS011;29120;52.006;6.020;2022-08-01T00:39:51;5.30;;;4.80;;
43523;SDS011;29120;52.006;6.020;2022-08-01T00:42:17;4.88;;;4.38;;
43523;SDS011;29120;52.006;6.020;2022-08-01T00:44:42;5.07;;;4.35;;
43523;SDS011;29120;52.006;6.020;2022-08-01T00:47:08;4.47;;;4.07;;
43523;SDS011;29120;52.006;6.020;2022-08-01T00:49:33;5.32;;;4.40;;
43523;SDS011;29120;52.006;6.020;2022-08-01T00:51:59;5.78;;;3.95;;
43523;SDS011;29120;52.006;6.020;2022-08-01T00:54:26;4.85;;;4.45;;
43523;SDS011;29120;52.006;6.020;2022-08-01T00:56:53;4.50;;;3.65;;
43523;SDS011;29120;52.006;6.020;2022-08-01T00:59:19;3.50;;;3.20;;
43523;SDS011;29120;52.006;6.020;2022-08-01T01:01:46;4.07;;;3.55;;
43523;SDS011;29120;52.006;6.020;2022-08-01T01:04:12;4.78;;;4.28;;
43523;SDS011;29120;52.006;6.020;2022-08-01T01:06:47;4.22;;;3.10;;
43523;SDS011;29120;52.006;6.020;2022-08-01T01:10:24;3.75;;;3.40;;
43523;SDS011;29120;52.006;6.020;2022-08-01T01:12:36;3.25;;;2.90;;
43523;SDS011;29120;52.006;6.020;2022-08-01T01:17:48;3.28;;;3.03;;
43523;SDS011;29120;52.006;6.020;2022-08-01T01:20:18;4.75;;;3.20;;
43523;SDS011;29120;52.006;6.020;2022-08-01T01:22:57;3.08;;;2.75;;
43523;SDS011;29120;52.006;6.020;2022-08-01T01:28:35;4.78;;;4.25;;
43523;SDS011;29120;52.006;6.020;2022-08-01T01:31:24;3.60;;;3.30;;
43523;SDS011;29120;52.006;6.020;2022-08-01T01:33:52;4.68;;;4.00;;
43523;SDS011;29120;52.006;6.020;2022-08-01T01:36:19;6.75;;;5.40;;
43523;SDS011;29120;52.006;6.020;2022-08-01T01:38:47;6.13;;;5.00;;
43523;SDS011;29120;52.006;6.020;2022-08-01T01:41:15;5.30;;;4.25;;
43523;SDS011;29120;52.006;6.020;2022-08-01T01:43:43;5.93;;;5.30;;
43523;SDS011;29120;52.006;6.020;2022-08-01T01:46:10;5.78;;;5.05;;
43523;SDS011;29120;52.006;6.020;2022-08-01T01:48:37;6.07;;;5.43;;
43523;SDS011;29120;52.006;6.020;2022-08-01T01:51:04;5.90;;;5.22;;
43523;SDS011;29120;52.006;6.020;2022-08-01T01:53:31;5.80;;;5.10;;
43523;SDS011;29120;52.006;6.020;2022-08-01T01:56:00;5.63;;;5.05;;
43523;SDS011;29120;52.006;6.020;2022-08-01T01:58:26;6.88;;;5.70;;
43523;SDS011;29120;52.006;6.020;2022-08-01T02:00:53;5.35;;;4.85;;
43523;SDS011;29120;52.006;6.020;2022-08-01T02:03:21;6.85;;;5.15;;
43523;SDS011;29120;52.006;6.020;2022-08-01T02:05:48;5.88;;;5.28;;
43523;SDS011;29120;52.006;6.020;2022-08-01T02:08:17;6.22;;;4.97;;
43523;SDS011;29120;52.006;6.020;2022-08-01T02:10:42;6.07;;;5.43;;
43523;SDS011;29120;52.006;6.020;2022-08-01T02:13:30;5.97;;;5.47;;
43523;SDS011;29120;52.006;6.020;2022-08-01T02:15:57;7.57;;;5.75;;
43523;SDS011;29120;52.006;6.020;2022-08-01T02:18:23;6.10;;;5.50;;
43523;SDS011;29120;52.006;6.020;2022-08-01T02:20:49;7.63;;;5.38;;
43523;SDS011;29120;52.006;6.020;2022-08-01T02:23:17;5.63;;;4.55;;
43523;SDS011;29120;52.006;6.020;2022-08-01T02:25:48;5.78;;;5.20;;
43523;SDS011;29120;52.006;6.020;2022-08-01T02:28:27;6.00;;;5.18;;
43523;SDS011;29120;52.006;6.020;2022-08-01T02:31:00;4.80;;;4.35;;
43523;SDS011;29120;52.006;6.020;2022-08-01T02:33:29;4.70;;;4.30;;
43523;SDS011;29120;52.006;6.020;2022-08-01T02:36:05;7.32;;;5.30;;
43523;SDS011;29120;52.006;6.020;2022-08-01T02:38:32;5.72;;;5.22;;
43523;SDS011;29120;52.006;6.020;2022-08-01T02:41:02;4.95;;;4.10;;
43523;SDS011;29120;52.006;6.020;2022-08-01T02:43:32;4.82;;;4.43;;
43523;SDS011;29120;52.006;6.020;2022-08-01T02:46:01;3.97;;;3.58;;
43523;SDS011;29120;52.006;6.020;2022-08-01T02:48:28;4.22;;;3.30;;
43523;SDS011;29120;52.006;6.020;2022-08-01T02:50:57;3.63;;;3.33;;
43523;SDS011;29120;52.006;6.020;2022-08-01T02:53:25;3.35;;;3.05;;
43523;SDS011;29120;52.006;6.020;2022-08-01T02:55:52;3.47;;;2.92;;
43523;SDS011;29120;52.006;6.020;2022-08-01T02:58:19;2.90;;;2.63;;
43523;SDS011;29120;52.006;6.020;2022-08-01T03:00:48;2.00;;;1.65;;
43523;SDS011;29120;52.006;6.020;2022-08-01T03:03:15;2.08;;;1.40;;
43523;SDS011;29120;52.006;6.020;2022-08-01T03:05:41;1.60;;;1.35;;
43523;SDS011;29120;52.006;6.020;2022-08-01T03:08:09;1.92;;;1.20;;
43523;SDS011;29120;52.006;6.020;2022-08-01T03:10:36;1.50;;;1.13;;
43523;SDS011;29120;52.006;6.020;2022-08-01T03:13:05;2.50;;;1.10;;
43523;SDS011;29120;52.006;6.020;2022-08-01T03:15:33;2.00;;;1.58;;
43523;SDS011;29120;52.006;6.020;2022-08-01T03:18:02;2.10;;;1.27;;
43523;SDS011;29120;52.006;6.020;2022-08-01T03:20:29;5.70;;;1.02;;
43523;SDS011;29120;52.006;6.020;2022-08-01T03:22:57;1.52;;;1.00;;
43523;SDS011;29120;52.006;6.020;2022-08-01T03:25:24;2.53;;;1.48;;
43523;SDS011;29120;52.006;6.020;2022-08-01T03:27:54;1.40;;;0.90;;
43523;SDS011;29120;52.006;6.020;2022-08-01T03:30:22;3.47;;;0.90;;
43523;SDS011;29120;52.006;6.020;2022-08-01T03:32:49;1.48;;;0.70;;
43523;SDS011;29120;52.006;6.020;2022-08-01T03:35:14;1.42;;;0.90;;
43523;SDS011;29120;52.006;6.020;2022-08-01T03:37:41;1.20;;;0.80;;
43523;SDS011;29120;52.006;6.020;2022-08-01T03:40:28;1.17;;;0.70;;
43523;SDS011;29120;52.006;6.020;2022-08-01T03:43:04;1.85;;;0.90;;
43523;SDS011;29120;52.006;6.020;2022-08-01T03:45:35;1.35;;;0.60;;
43523;SDS011;29120;52.006;6.020;2022-08-01T03:48:05;1.00;;;0.65;;
43523;SDS011;29120;52.006;6.020;2022-08-01T03:50:36;0.85;;;0.50;;
43523;SDS011;29120;52.006;6.020;2022-08-01T03:53:04;1.10;;;0.50;;
43523;SDS011;29120;52.006;6.020;2022-08-01T03:55:32;0.75;;;0.50;;
43523;SDS011;29120;52.006;6.020;2022-08-01T03:57:59;1.42;;;0.60;;
43523;SDS011;29120;52.006;6.020;2022-08-01T04:00:25;2.40;;;0.60;;
43523;SDS011;29120;52.006;6.020;2022-08-01T04:02:52;0.90;;;0.40;;
43523;SDS011;29120;52.006;6.020;2022-08-01T04:05:18;0.70;;;0.45;;
43523;SDS011;29120;52.006;6.020;2022-08-01T04:07:48;0.73;;;0.50;;
43523;SDS011;29120;52.006;6.020;2022-08-01T04:10:23;1.02;;;0.50;;
43523;SDS011;29120;52.006;6.020;2022-08-01T04:12:49;0.80;;;0.50;;
43523;SDS011;29120;52.006;6.020;2022-08-01T04:15:15;0.70;;;0.40;;
43523;SDS011;29120;52.006;6.020;2022-08-01T04:17:41;0.90;;;0.50;;
43523;SDS011;29120;52.006;6.020;2022-08-01T04:20:06;0.80;;;0.40;;
43523;SDS011;29120;52.006;6.020;2022-08-01T04:22:33;0.90;;;0.50;;
43523;SDS011;29120;52.006;6.020;2022-08-01T04:24:58;0.95;;;0.43;;
43523;SDS011;29120;52.006;6.020;2022-08-01T04:27:32;0.93;;;0.47;;
43523;SDS011;29120;52.006;6.020;2022-08-01T04:30:02;1.60;;;0.55;;
43523;SDS011;29120;52.006;6.020;2022-08-01T04:32:29;0.90;;;0.63;;
43523;SDS011;29120;52.006;6.020;2022-08-01T04:34:59;0.70;;;0.40;;
43523;SDS011;29120;52.006;6.020;2022-08-01T04:37:29;1.02;;;0.40;;
43523;SDS011;29120;52.006;6.020;2022-08-01T04:39:56;0.90;;;0.50;;
43523;SDS011;29120;52.006;6.020;2022-08-01T04:42:24;1.20;;;0.40;;
43523;SDS011;29120;52.006;6.020;2022-08-01T04:44:50;1.23;;;0.50;;
43523;SDS011;29120;52.006;6.020;2022-08-01T04:47:16;0.90;;;0.63;;
43523;SDS011;29120;52.006;6.020;2022-08-01T04:49:42;1.27;;;0.60;;
43523;SDS011;29120;52.006;6.020;2022-08-01T04:52:10;1.05;;;0.60;;
43523;SDS011;29120;52.006;6.020;2022-08-01T04:54:37;1.10;;;0.70;;
43523;SDS011;29120;52.006;6.020;2022-08-01T04:57:06;1.10;;;0.70;;
43523;SDS011;29120;52.006;6.020;2022-08-01T04:59:33;0.80;;;0.50;;
43523;SDS011;29120;52.006;6.020;2022-08-01T05:02:08;1.38;;;0.60;;
43523;SDS011;29120;52.006;6.020;2022-08-01T05:04:36;1.35;;;0.73;;
43523;SDS011;29120;52.006;6.020;2022-08-01T05:07:02;1.52;;;0.70;;
43523;SDS011;29120;52.006;6.020;2022-08-01T05:09:29;1.20;;;0.60;;
43523;SDS011;29120;52.006;6.020;2022-08-01T05:11:55;1.00;;;0.63;;
43523;SDS011;29120;52.006;6.020;2022-08-01T05:14:23;1.42;;;0.90;;
43523;SDS011;29120;52.006;6.020;2022-08-01T05:16:50;1.20;;;0.70;;
43523;SDS011;29120;52.006;6.020;2022-08-01T05:19:16;1.23;;;0.82;;
43523;SDS011;29120;52.006;6.020;2022-08-01T05:21:41;2.10;;;0.80;;
43523;SDS011;29120;52.006;6.020;2022-08-01T05:24:07;1.50;;;0.70;;
43523;SDS011;29120;52.006;6.020;2022-08-01T05:26:32;1.00;;;0.80;;
43523;SDS011;29120;52.006;6.020;2022-08-01T05:28:59;2.05;;;0.85;;
43523;SDS011;29120;52.006;6.020;2022-08-01T05:31:25;2.70;;;0.90;;
43523;SDS011;29120;52.006;6.020;2022-08-01T05:33:50;0.98;;;0.80;;
43523;SDS011;29120;52.006;6.020;2022-08-01T05:36:16;1.30;;;1.00;;
43523;SDS011;29120;52.006;6.020;2022-08-01T05:38:41;1.50;;;0.88;;
43523;SDS011;29120;52.006;6.020;2022-08-01T05:41:07;1.50;;;0.90;;
43523;SDS011;29120;52.006;6.020;2022-08-01T05:43:32;1.65;;;1.23;;
43523;SDS011;29120;52.006;6.020;2022-08-01T05:45:58;1.60;;;1.10;;
43523;SDS011;29120;52.006;6.020;2022-08-01T05:48:24;2.53;;;0.98;;
43523;SDS011;29120;52.006;6.020;2022-08-01T05:50:49;2.03;;;1.33;;
43523;SDS011;29120;52.006;6.020;2022-08-01T05:53:15;1.73;;;1.23;;
43523;SDS011;29120;52.006;6.020;2022-08-01T05:55:41;2.17;;;0.90;;
43523;SDS011;29120;52.006;6.020;2022-08-01T05:58:07;1.45;;;1.10;;
43523;SDS011;29120;52.006;6.020;2022-08-01T06:00:32;1.35;;;1.05;;
43523;SDS011;29120;52.006;6.020;2022-08-01T06:02:58;1.35;;;0.77;;
43523;SDS011;29120;52.006;6.020;2022-08-01T06:05:23;1.00;;;0.60;;
43523;SDS011;29120;52.006;6.020;2022-08-01T06:07:49;1.10;;;0.60;;
43523;SDS011;29120;52.006;6.020;2022-08-01T06:10:15;0.47;;;0.30;;
43523;SDS011;29120;52.006;6.020;2022-08-01T06:12:40;0.40;;;0.30;;
43523;SDS011;29120;52.006;6.020;2022-08-01T06:15:06;0.70;;;0.20;;
43523;SDS011;29120;52.006;6.020;2022-08-01T06:17:32;0.65;;;0.13;;
43523;SDS011;29120;52.006;6.020;2022-08-01T06:19:57;0.40;;;0.20;;
43523;SDS011;29120;52.006;6.020;2022-08-01T06:22:24;0.28;;;0.10;;
43523;SDS011;29120;52.006;6.020;2022-08-01T06:24:49;0.30;;;0.10;;
43523;SDS011;29120;52.006;6.020;2022-08-01T06:27:15;0.47;;;0.10;;
43523;SDS011;29120;52.006;6.020;2022-08-01T06:29:40;0.43;;;0.20;;
43523;SDS011;29120;52.006;6.020;2022-08-01T06:32:08;0.50;;;0.20;;
43523;SDS011;29120;52.006;6.020;2022-08-01T06:34:34;0.28;;;0.20;;
43523;SDS011;29120;52.006;6.020;2022-08-01T06:37:00;0.38;;;0.20;;
43523;SDS011;29120;52.006;6.020;2022-08-01T06:39:25;0.43;;;0.10;;
43523;SDS011;29120;52.006;6.020;2022-08-01T06:41:51;0.30;;;0.20;;
43523;SDS011;29120;52.006;6.020;2022-08-01T06:44:17;0.40;;;0.10;;
43523;SDS011;29120;52.006;6.020;2022-08-01T06:46:42;0.68;;;0.20;;
43523;SDS011;29120;52.006;6.020;2022-08-01T06:49:08;0.30;;;0.10;;
43523;SDS011;29120;52.006;6.020;2022-08-01T06:51:33;0.20;;;0.10;;
43523;SDS011;29120;52.006;6.020;2022-08-01T06:53:59;0.40;;;0.20;;
43523;SDS011;29120;52.006;6.020;2022-08-01T06:56:24;0.20;;;0.20;;
43523;SDS011;29120;52.006;6.020;2022-08-01T06:58:50;1.90;;;0.40;;
43523;SDS011;29120;52.006;6.020;2022-08-01T07:01:16;0.57;;;0.20;;
43523;SDS011;29120;52.006;6.020;2022-08-01T07:03:41;1.00;;;0.20;;
43523;SDS011;29120;52.006;6.020;2022-08-01T07:06:07;0.73;;;0.30;;
43523;SDS011;29120;52.006;6.020;2022-08-01T07:08:32;0.45;;;0.17;;
43523;SDS011;29120;52.006;6.020;2022-08-01T07:10:58;0.70;;;0.30;;
43523;SDS011;29120;52.006;6.020;2022-08-01T07:13:27;0.52;;;0.20;;
43523;SDS011;29120;52.006;6.020;2022-08-01T07:15:53;2.22;;;0.20;;
43523;SDS011;29120;52.006;6.020;2022-08-01T07:18:18;0.40;;;0.20;;
43523;SDS011;29120;52.006;6.020;2022-08-01T07:20:44;0.50;;;0.22;;
43523;SDS011;29120;52.006;6.020;2022-08-01T07:23:11;0.45;;;0.20;;
43523;SDS011;29120;52.006;6.020;2022-08-01T07:25:37;2.08;;;0.80;;
43523;SDS011;29120;52.006;6.020;2022-08-01T07:28:03;0.38;;;0.20;;
43523;SDS011;29120;52.006;6.020;2022-08-01T07:30:28;1.55;;;0.30;;
43523;SDS011;29120;52.006;6.020;2022-08-01T07:32:54;1.15;;;0.40;;
43523;SDS011;29120;52.006;6.020;2022-08-01T07:35:19;1.80;;;0.25;;
43523;SDS011;29120;52.006;6.020;2022-08-01T07:37:45;1.05;;;0.30;;
43523;SDS011;29120;52.006;6.020;2022-08-01T07:40:11;0.57;;;0.20;;
43523;SDS011;29120;52.006;6.020;2022-08-01T07:42:36;0.60;;;0.20;;
43523;SDS011;29120;52.006;6.020;2022-08-01T07:45:02;2.92;;;0.20;;
43523;SDS011;29120;52.006;6.020;2022-08-01T07:47:28;0.70;;;0.40;;
43523;SDS011;29120;52.006;6.020;2022-08-01T07:50:00;0.70;;;0.20;;
43523;SDS011;29120;52.006;6.020;2022-08-01T07:52:26;0.38;;;0.20;;
43523;SDS011;29120;52.006;6.020;2022-08-01T07:54:52;0.32;;;0.20;;
43523;SDS011;29120;52.006;6.020;2022-08-01T07:57:18;0.90;;;0.28;;
43523;SDS011;29120;52.006;6.020;2022-08-01T07:59:43;0.70;;;0.20;;
43523;SDS011;29120;52.006;6.020;2022-08-01T08:02:09;0.60;;;0.30;;
43523;SDS011;29120;52.006;6.020;2022-08-01T08:04:34;1.27;;;0.30;;
43523;SDS011;29120;52.006;6.020;2022-08-01T08:07:00;1.20;;;0.30;;
43523;SDS011;29120;52.006;6.020;2022-08-01T08:09:26;1.95;;;0.60;;
43523;SDS011;29120;52.006;6.020;2022-08-01T08:11:51;1.00;;;0.30;;
43523;SDS011;29120;52.006;6.020;2022-08-01T08:14:17;0.88;;;0.30;;
43523;SDS011;29120;52.006;6.020;2022-08-01T08:16:43;1.45;;;0.28;;
43523;SDS011;29120;52.006;6.020;2022-08-01T08:19:09;0.77;;;0.30;;
43523;SDS011;29120;52.006;6.020;2022-08-01T08:21:35;0.88;;;0.20;;
43523;SDS011;29120;52.006;6.020;2022-08-01T08:24:01;1.63;;;0.30;;
43523;SDS011;29120;52.006;6.020;2022-08-01T08:26:45;2.40;;;0.30;;
43523;SDS011;29120;52.006;6.020;2022-08-01T08:29:11;1.80;;;0.40;;
43523;SDS011;29120;52.006;6.020;2022-08-01T08:31:37;0.43;;;0.20;;
43523;SDS011;29120;52.006;6.020;2022-08-01T08:34:02;0.98;;;0.52;;
43523;SDS011;29120;52.006;6.020;2022-08-01T08:36:28;1.05;;;0.30;;
43523;SDS011;29120;52.006;6.020;2022-08-01T08:38:53;0.85;;;0.20;;
43523;SDS011;29120;52.006;6.020;2022-08-01T08:41:19;0.85;;;0.22;;
43523;SDS011;29120;52.006;6.020;2022-08-01T08:43:46;0.80;;;0.20;;
43523;SDS011;29120;52.006;6.020;2022-08-01T08:46:12;0.55;;;0.30;;
43523;SDS011;29120;52.006;6.020;2022-08-01T08:48:39;0.95;;;0.25;;
43523;SDS011;29120;52.006;6.020;2022-08-01T08:51:05;0.57;;;0.20;;
43523;SDS011;29120;52.006;6.020;2022-08-01T08:53:33;0.98;;;0.20;;
43523;SDS011;29120;52.006;6.020;2022-08-01T08:56:00;1.10;;;0.30;;
43523;SDS011;29120;52.006;6.020;2022-08-01T08:58:28;0.85;;;0.20;;
43523;SDS011;29120;52.006;6.020;2022-08-01T09:00:59;1.40;;;0.30;;
43523;SDS011;29120;52.006;6.020;2022-08-01T09:03:24;1.25;;;0.22;;
43523;SDS011;29120;52.006;6.020;2022-08-01T09:05:50;1.75;;;0.30;;
43523;SDS011;29120;52.006;6.020;2022-08-01T09:08:15;0.93;;;0.30;;
43523;SDS011;29120;52.006;6.020;2022-08-01T09:10:41;1.05;;;0.30;;
43523;SDS011;29120;52.006;6.020;2022-08-01T09:13:08;1.98;;;0.50;;
43523;SDS011;29120;52.006;6.020;2022-08-01T09:15:43;1.27;;;0.30;;
43523;SDS011;29120;52.006;6.020;2022-08-01T09:21:16;1.13;;;0.40;;
43523;SDS011;29120;52.006;6.020;2022-08-01T09:23:46;2.25;;;0.30;;
43523;SDS011;29120;52.006;6.020;2022-08-01T09:26:15;1.65;;;0.52;;
43523;SDS011;29120;52.006;6.020;2022-08-01T09:28:42;3.47;;;0.40;;
43523;SDS011;29120;52.006;6.020;2022-08-01T09:31:10;1.67;;;0.85;;
43523;SDS011;29120;52.006;6.020;2022-08-01T09:33:51;1.25;;;0.50;;
43523;SDS011;29120;52.006;6.020;2022-08-01T09:36:17;5.10;;;0.40;;
43523;SDS011;29120;52.006;6.020;2022-08-01T09:38:44;2.22;;;0.70;;
43523;SDS011;29120;52.006;6.020;2022-08-01T09:41:09;2.35;;;0.50;;
43523;SDS011;29120;52.006;6.020;2022-08-01T09:43:36;2.35;;;0.50;;
43523;SDS011;29120;52.006;6.020;2022-08-01T09:46:11;2.83;;;0.77;;
43523;SDS011;29120;52.006;6.020;2022-08-01T09:48:37;1.42;;;0.60;;
43523;SDS011;29120;52.006;6.020;2022-08-01T09:51:04;2.65;;;0.60;;
43523;SDS011;29120;52.006;6.020;2022-08-01T09:53:41;3.10;;;0.50;;
43523;SDS011;29120;52.006;6.020;2022-08-01T09:56:11;1.63;;;0.52;;
43523;SDS011;29120;52.006;6.020;2022-08-01T09:58:50;4.57;;;0.70;;
43523;SDS011;29120;52.006;6.020;2022-08-01T10:01:15;4.15;;;0.85;;
43523;SDS011;29120;52.006;6.020;2022-08-01T10:03:41;1.17;;;0.50;;
43523;SDS011;29120;52.006;6.020;2022-08-01T10:06:19;2.85;;;0.77;;
43523;SDS011;29120;52.006;6.020;2022-08-01T10:08:46;3.67;;;0.60;;
43523;SDS011;29120;52.006;6.020;2022-08-01T10:11:13;1.85;;;0.60;;
43523;SDS011;29120;52.006;6.020;2022-08-01T10:13:38;3.92;;;1.33;;
43523;SDS011;29120;52.006;6.020;2022-08-01T10:16:05;3.80;;;0.93;;
43523;SDS011;29120;52.006;6.020;2022-08-01T10:18:32;6.60;;;0.88;;
43523;SDS011;29120;52.006;6.020;2022-08-01T10:20:58;8.13;;;1.17;;
43523;SDS011;29120;52.006;6.020;2022-08-01T10:23:30;5.35;;;0.80;;
43523;SDS011;29120;52.006;6.020;2022-08-01T10:25:59;2.13;;;0.50;;
43523;SDS011;29120;52.006;6.020;2022-08-01T10:28:25;4.13;;;0.60;;
43523;SDS011;29120;52.006;6.020;2022-08-01T10:30:54;3.60;;;0.50;;
43523;SDS011;29120;52.006;6.020;2022-08-01T10:33:22;8.73;;;1.05;;
43523;SDS011;29120;52.006;6.020;2022-08-01T10:35:48;3.22;;;0.73;;
43523;SDS011;29120;52.006;6.020;2022-08-01T10:38:15;4.00;;;0.70;;
43523;SDS011;29120;52.006;6.020;2022-08-01T10:40:42;1.98;;;0.70;;
43523;SDS011;29120;52.006;6.020;2022-08-01T10:43:12;3.95;;;0.95;;
43523;SDS011;29120;52.006;6.020;2022-08-01T10:45:39;2.67;;;0.60;;
43523;SDS011;29120;52.006;6.020;2022-08-01T10:50:52;4.95;;;0.77;;
43523;SDS011;29120;52.006;6.020;2022-08-01T10:53:24;3.15;;;0.70;;
43523;SDS011;29120;52.006;6.020;2022-08-01T10:58:31;2.65;;;1.02;;
43523;SDS011;29120;52.006;6.020;2022-08-01T11:06:27;3.72;;;0.68;;
43523;SDS011;29120;52.006;6.020;2022-08-01T11:09:00;5.57;;;0.70;;
43523;SDS011;29120;52.006;6.020;2022-08-01T11:11:30;5.90;;;0.80;;
43523;SDS011;29120;52.006;6.020;2022-08-01T11:16:38;3.88;;;0.50;;
43523;SDS011;29120;52.006;6.020;2022-08-01T11:19:04;3.00;;;0.45;;
43523;SDS011;29120;52.006;6.020;2022-08-01T11:32:50;6.03;;;0.63;;
43523;SDS011;29120;52.006;6.020;2022-08-01T11:35:16;6.85;;;0.73;;
43523;SDS011;29120;52.006;6.020;2022-08-01T11:37:44;3.85;;;0.50;;
43523;SDS011;29120;52.006;6.020;2022-08-01T11:40:14;5.28;;;0.57;;
43523;SDS011;29120;52.006;6.020;2022-08-01T11:42:40;3.10;;;0.50;;
43523;SDS011;29120;52.006;6.020;2022-08-01T11:45:06;4.38;;;0.60;;
43523;SDS011;29120;52.006;6.020;2022-08-01T11:47:44;2.40;;;0.40;;
43523;SDS011;29120;52.006;6.020;2022-08-01T11:50:29;6.57;;;0.77;;
43523;SDS011;29120;52.006;6.020;2022-08-01T11:52:57;2.20;;;0.40;;
43523;SDS011;29120;52.006;6.020;2022-08-01T11:55:24;4.82;;;0.93;;
43523;SDS011;29120;52.006;6.020;2022-08-01T11:58:03;5.15;;;0.50;;
43523;SDS011;29120;52.006;6.020;2022-08-01T12:00:30;2.72;;;0.45;;
43523;SDS011;29120;52.006;6.020;2022-08-01T12:03:01;3.08;;;0.30;;
43523;SDS011;29120;52.006;6.020;2022-08-01T12:05:33;2.47;;;0.30;;
43523;SDS011;29120;52.006;6.020;2022-08-01T12:08:01;2.97;;;0.43;;
43523;SDS011;29120;52.006;6.020;2022-08-01T12:10:29;0.98;;;0.30;;
43523;SDS011;29120;52.006;6.020;2022-08-01T12:13:01;2.60;;;0.40;;
43523;SDS011;29120;52.006;6.020;2022-08-01T12:15:29;1.20;;;0.28;;
43523;SDS011;29120;52.006;6.020;2022-08-01T12:18:02;1.10;;;0.30;;
43523;SDS011;29120;52.006;6.020;2022-08-01T12:20:31;1.38;;;0.20;;
43523;SDS011;29120;52.006;6.020;2022-08-01T12:23:02;2.05;;;0.45;;
43523;SDS011;29120;52.006;6.020;2022-08-01T12:25:30;1.67;;;0.20;;
43523;SDS011;29120;52.006;6.020;2022-08-01T12:28:00;2.47;;;0.30;;
43523;SDS011;29120;52.006;6.020;2022-08-01T12:30:26;2.40;;;0.30;;
43523;SDS011;29120;52.006;6.020;2022-08-01T12:32:54;3.15;;;0.40;;
43523;SDS011;29120;52.006;6.020;2022-08-01T12:40:20;3.10;;;0.60;;
43523;SDS011;29120;52.006;6.020;2022-08-01T12:42:49;1.20;;;0.40;;
43523;SDS011;29120;52.006;6.020;2022-08-01T12:45:20;1.40;;;0.28;;
43523;SDS011;29120;52.006;6.020;2022-08-01T12:47:50;1.15;;;0.38;;
43523;SDS011;29120;52.006;6.020;2022-08-01T12:50:21;2.30;;;0.30;;
43523;SDS011;29120;52.006;6.020;2022-08-01T12:52:49;2.50;;;0.30;;
43523;SDS011;29120;52.006;6.020;2022-08-01T12:55:16;1.95;;;0.20;;
43523;SDS011;29120;52.006;6.020;2022-08-01T12:57:44;3.05;;;0.40;;
43523;SDS011;29120;52.006;6.020;2022-08-01T13:00:22;2.00;;;0.30;;
43523;SDS011;29120;52.006;6.020;2022-08-01T13:02:59;3.17;;;0.40;;
43523;SDS011;29120;52.006;6.020;2022-08-01T13:08:16;1.70;;;0.60;;
43523;SDS011;29120;52.006;6.020;2022-08-01T13:10:46;3.67;;;0.40;;
43523;SDS011;29120;52.006;6.020;2022-08-01T13:13:13;3.42;;;0.82;;
43523;SDS011;29120;52.006;6.020;2022-08-01T13:15:41;3.08;;;0.30;;
43523;SDS011;29120;52.006;6.020;2022-08-01T13:21:10;1.73;;;0.30;;
43523;SDS011;29120;52.006;6.020;2022-08-01T13:23:37;3.08;;;0.50;;
43523;SDS011;29120;52.006;6.020;2022-08-01T13:26:04;1.98;;;0.30;;
43523;SDS011;29120;52.006;6.020;2022-08-01T13:28:30;5.80;;;0.30;;
43523;SDS011;29120;52.006;6.020;2022-08-01T13:30:59;3.72;;;0.40;;
43523;SDS011;29120;52.006;6.020;2022-08-01T13:33:27;2.58;;;0.30;;
43523;SDS011;29120;52.006;6.020;2022-08-01T13:36:04;3.08;;;0.85;;
43523;SDS011;29120;52.006;6.020;2022-08-01T13:38:30;1.90;;;0.45;;
43523;SDS011;29120;52.006;6.020;2022-08-01T13:41:14;2.20;;;0.40;;
43523;SDS011;29120;52.006;6.020;2022-08-01T13:43:42;1.85;;;0.30;;
43523;SDS011;29120;52.006;6.020;2022-08-01T13:46:08;2.35;;;0.30;;
43523;SDS011;29120;52.006;6.020;2022-08-01T13:48:33;1.55;;;0.30;;
43523;SDS011;29120;52.006;6.020;2022-08-01T13:50:59;2.10;;;0.60;;
43523;SDS011;29120;52.006;6.020;2022-08-01T13:53:25;0.80;;;0.20;;
43523;SDS011;29120;52.006;6.020;2022-08-01T13:55:51;3.42;;;0.30;;
43523;SDS011;29120;52.006;6.020;2022-08-01T13:58:17;2.15;;;0.68;;
43523;SDS011;29120;52.006;6.020;2022-08-01T14:00:42;4.22;;;0.40;;
43523;SDS011;29120;52.006;6.020;2022-08-01T14:03:08;2.53;;;0.40;;
43523;SDS011;29120;52.006;6.020;2022-08-01T14:05:35;6.28;;;0.50;;
43523;SDS011;29120;52.006;6.020;2022-08-01T14:08:01;1.83;;;0.30;;
43523;SDS011;29120;52.006;6.020;2022-08-01T14:10:27;2.42;;;0.30;;
43523;SDS011;29120;52.006;6.020;2022-08-01T14:12:53;1.30;;;0.30;;
43523;SDS011;29120;52.006;6.020;2022-08-01T14:15:20;3.65;;;0.50;;
43523;SDS011;29120;52.006;6.020;2022-08-01T14:17:45;1.27;;;0.20;;
43523;SDS011;29120;52.006;6.020;2022-08-01T14:20:11;3.13;;;0.30;;
43523;SDS011;29120;52.006;6.020;2022-08-01T14:22:36;3.80;;;0.38;;
43523;SDS011;29120;52.006;6.020;2022-08-01T14:25:04;2.22;;;0.30;;
43523;SDS011;29120;52.006;6.020;2022-08-01T14:27:32;4.25;;;0.40;;
43523;SDS011;29120;52.006;6.020;2022-08-01T14:30:01;2.58;;;0.50;;
43523;SDS011;29120;52.006;6.020;2022-08-01T14:32:27;2.92;;;0.40;;
43523;SDS011;29120;52.006;6.020;2022-08-01T14:34:53;0.90;;;0.30;;
43523;SDS011;29120;52.006;6.020;2022-08-01T14:37:18;2.05;;;0.28;;
43523;SDS011;29120;52.006;6.020;2022-08-01T14:39:44;2.25;;;0.50;;
43523;SDS011;29120;52.006;6.020;2022-08-01T14:42:09;2.00;;;0.25;;
43523;SDS011;29120;52.006;6.020;2022-08-01T14:44:35;2.28;;;0.40;;
43523;SDS011;29120;52.006;6.020;2022-08-01T14:47:00;2.72;;;0.30;;
43523;SDS011;29120;52.006;6.020;2022-08-01T14:49:26;1.25;;;0.20;;
43523;SDS011;29120;52.006;6.020;2022-08-01T14:51:52;2.40;;;0.40;;
43523;SDS011;29120;52.006;6.020;2022-08-01T14:54:17;2.17;;;0.20;;
43523;SDS011;29120;52.006;6.020;2022-08-01T14:56:44;5.38;;;0.30;;
43523;SDS011;29120;52.006;6.020;2022-08-01T14:59:09;2.97;;;0.45;;
43523;SDS011;29120;52.006;6.020;2022-08-01T15:01:35;1.30;;;0.20;;
43523;SDS011;29120;52.006;6.020;2022-08-01T15:04:00;0.80;;;0.20;;
43523;SDS011;29120;52.006;6.020;2022-08-01T15:06:26;1.35;;;0.22;;
43523;SDS011;29120;52.006;6.020;2022-08-01T15:08:51;1.30;;;0.15;;
43523;SDS011;29120;52.006;6.020;2022-08-01T15:11:17;1.10;;;0.20;;
43523;SDS011;29120;52.006;6.020;2022-08-01T15:13:42;2.60;;;0.75;;
43523;SDS011;29120;52.006;6.020;2022-08-01T15:16:08;2.33;;;0.20;;
43523;SDS011;29120;52.006;6.020;2022-08-01T15:18:34;3.45;;;0.30;;
43523;SDS011;29120;52.006;6.020;2022-08-01T15:21:00;0.85;;;0.20;;
43523;SDS011;29120;52.006;6.020;2022-08-01T15:23:25;1.08;;;0.20;;
43523;SDS011;29120;52.006;6.020;2022-08-01T15:25:51;0.90;;;0.20;;
43523;SDS011;29120;52.006;6.020;2022-08-01T15:28:16;1.75;;;0.30;;
43523;SDS011;29120;52.006;6.020;2022-08-01T15:30:42;1.23;;;0.20;;
43523;SDS011;29120;52.006;6.020;2022-08-01T15:33:07;0.52;;;0.10;;
43523;SDS011;29120;52.006;6.020;2022-08-01T15:35:33;0.85;;;0.20;;